createdAt,value
2023-09-05T00:00:14.119Z,92.40
2023-09-05T00:02:46.244Z,92.50
2023-09-05T00:05:13.331Z,92.60
2023-09-05T00:07:41.511Z,92.60
2023-09-05T00:10:12.120Z,92.70
2023-09-05T00:12:42.670Z,92.70
2023-09-05T00:15:14.240Z,92.70
2023-09-05T00:17:41.701Z,92.80
2023-09-05T00:20:09.197Z,92.80
2023-09-05T00:22:36.210Z,92.90
2023-09-05T00:25:04.148Z,92.90
2023-09-05T00:27:31.023Z,93.00
2023-09-05T00:29:58.684Z,93.00
2023-09-05T00:32:25.505Z,93.00
2023-09-05T00:34:52.344Z,93.10
2023-09-05T00:37:23.842Z,93.10
2023-09-05T00:39:51.070Z,93.10
2023-09-05T00:42:18.639Z,93.20
2023-09-05T00:44:47.910Z,93.20
2023-09-05T00:47:14.759Z,93.20
2023-09-05T00:49:48.196Z,93.20
2023-09-05T00:52:15.279Z,93.30
2023-09-05T00:54:42.511Z,93.30
2023-09-05T00:57:15.784Z,93.30
2023-09-05T00:59:43.611Z,93.40
2023-09-05T01:02:16.764Z,93.40
2023-09-05T01:04:44.607Z,93.40
2023-09-05T01:07:19.534Z,93.40
2023-09-05T01:09:55.034Z,93.50
2023-09-05T01:12:21.875Z,93.60
2023-09-05T01:14:48.713Z,93.60
2023-09-05T01:17:15.810Z,93.60
2023-09-05T01:19:42.977Z,93.70
2023-09-05T01:22:18.841Z,93.70
2023-09-05T01:24:48.801Z,93.70
2023-09-05T01:27:18.914Z,93.80
2023-09-05T01:29:45.925Z,93.80
2023-09-05T01:32:13.085Z,93.80
2023-09-05T01:34:40.224Z,93.90
2023-09-05T01:37:07.054Z,93.90
2023-09-05T01:39:34.069Z,93.90
2023-09-05T01:42:00.931Z,94.00
2023-09-05T01:44:27.794Z,94.00
2023-09-05T01:46:54.705Z,94.00
2023-09-05T01:49:21.634Z,94.00
2023-09-05T01:51:48.515Z,94.10
2023-09-05T01:54:15.365Z,94.10
2023-09-05T01:56:42.193Z,94.20
2023-09-05T01:59:09.245Z,94.20
2023-09-05T02:01:36.053Z,94.20
2023-09-05T02:04:02.913Z,94.20
2023-09-05T02:06:30.889Z,94.30
2023-09-05T02:08:57.623Z,94.30
2023-09-05T02:11:24.702Z,94.40
2023-09-05T02:13:51.489Z,94.40
2023-09-05T02:16:20.224Z,94.40
2023-09-05T02:18:53.366Z,94.50
2023-09-05T02:21:20.127Z,94.50
2023-09-05T02:23:46.921Z,94.50
2023-09-05T02:26:14.220Z,94.50
2023-09-05T02:28:41.062Z,94.50
2023-09-05T02:31:08.144Z,94.50
2023-09-05T02:33:38.338Z,94.50
2023-09-05T02:36:16.598Z,94.50
2023-09-05T02:38:44.014Z,94.60
2023-09-05T02:41:17.816Z,94.80
2023-09-05T02:43:48.860Z,94.60
2023-09-05T02:46:15.950Z,94.60
2023-09-05T02:48:43.069Z,94.60
2023-09-05T02:51:11.173Z,94.60
2023-09-05T02:53:38.473Z,94.60
2023-09-05T02:56:05.676Z,94.60
2023-09-05T02:58:33.512Z,94.60
2023-09-05T03:01:04.336Z,94.60
2023-09-05T03:03:32.160Z,94.70
2023-09-05T03:06:08.077Z,94.70
2023-09-05T03:08:37.339Z,94.70
2023-09-05T03:11:04.142Z,94.70
2023-09-05T03:13:31.020Z,94.80
2023-09-05T03:15:57.819Z,94.80
2023-09-05T03:18:26.338Z,94.80
2023-09-05T03:20:56.244Z,94.90
2023-09-05T03:23:24.116Z,94.90
2023-09-05T03:25:53.166Z,94.90
2023-09-05T03:28:20.744Z,94.90
2023-09-05T03:30:47.643Z,94.90
2023-09-05T03:33:14.456Z,94.90
2023-09-05T03:35:43.188Z,95.00
2023-09-05T03:38:10.456Z,95.00
2023-09-05T03:40:37.482Z,95.00
2023-09-05T03:43:04.381Z,95.10
2023-09-05T03:45:32.039Z,95.10
2023-09-05T03:48:02.084Z,95.20
2023-09-05T03:50:29.829Z,95.20
2023-09-05T03:52:56.830Z,95.20
2023-09-05T03:55:23.941Z,95.20
2023-09-05T03:57:50.945Z,95.20
2023-09-05T04:00:18.385Z,95.20
2023-09-05T04:02:45.351Z,95.20
2023-09-05T04:05:12.771Z,95.30
2023-09-05T04:07:41.840Z,95.30
2023-09-05T04:10:09.965Z,95.30
2023-09-05T04:12:38.347Z,95.40
2023-09-05T04:15:05.999Z,95.40
2023-09-05T04:17:32.855Z,95.40
2023-09-05T04:20:00.041Z,95.40
2023-09-05T04:22:29.463Z,95.30
2023-09-05T04:24:56.377Z,95.40
2023-09-05T04:27:25.190Z,95.40
2023-09-05T04:29:52.533Z,95.40
2023-09-05T04:32:30.120Z,95.40
2023-09-05T04:34:58.034Z,95.50
2023-09-05T04:37:25.032Z,95.50
2023-09-05T04:39:52.156Z,95.50
2023-09-05T04:42:18.900Z,95.60
2023-09-05T04:44:45.764Z,95.60
2023-09-05T04:47:25.485Z,95.60
2023-09-05T04:49:54.190Z,95.70
2023-09-05T04:52:21.811Z,95.70
2023-09-05T04:54:48.741Z,95.70
2023-09-05T04:57:15.852Z,95.70
2023-09-05T04:59:45.046Z,95.70
2023-09-05T05:02:12.064Z,95.70
2023-09-05T05:04:38.919Z,95.70
2023-09-05T05:07:05.646Z,95.70
2023-09-05T05:09:32.422Z,95.80
2023-09-05T05:12:00.411Z,95.70
2023-09-05T05:14:27.622Z,95.70
2023-09-05T05:16:55.077Z,95.70
2023-09-05T05:19:22.781Z,95.70
2023-09-05T05:21:50.202Z,95.70
2023-09-05T05:24:17.001Z,95.70
2023-09-05T05:26:44.272Z,95.50
2023-09-05T05:29:11.168Z,95.70
2023-09-05T05:31:38.927Z,95.70
2023-09-05T05:34:05.783Z,95.80
2023-09-05T05:36:32.816Z,95.80
2023-09-05T05:39:00.177Z,95.80
2023-09-05T05:41:28.983Z,95.80
2023-09-05T05:43:58.790Z,95.80
2023-09-05T05:46:25.697Z,96.10
2023-09-05T05:48:53.067Z,95.90
2023-09-05T05:51:20.105Z,95.90
2023-09-05T05:53:47.923Z,95.90
2023-09-05T05:56:14.792Z,96.10
2023-09-05T05:58:41.734Z,95.90
2023-09-05T06:01:09.127Z,95.90
2023-09-05T06:03:36.685Z,95.90
2023-09-05T06:06:04.595Z,95.90
2023-09-05T06:08:31.890Z,95.90
2023-09-05T06:10:59.045Z,95.90
2023-09-05T06:13:26.129Z,95.90
2023-09-05T06:15:53.597Z,95.90
2023-09-05T06:18:20.852Z,95.90
2023-09-05T06:20:47.635Z,95.90
2023-09-05T06:23:14.744Z,95.90
2023-09-05T06:25:41.735Z,96.00
2023-09-05T06:28:11.286Z,96.20
2023-09-05T06:30:38.079Z,96.00
2023-09-05T06:33:05.359Z,96.00
2023-09-05T06:35:32.126Z,96.10
2023-09-05T06:37:59.045Z,96.10
2023-09-05T06:40:26.232Z,96.10
2023-09-05T06:42:55.790Z,96.20
2023-09-05T06:45:22.751Z,96.20
2023-09-05T06:47:49.634Z,96.20
2023-09-05T06:50:16.576Z,96.50
2023-09-05T06:52:43.595Z,96.30
2023-09-05T06:55:11.063Z,96.40
2023-09-05T06:57:38.012Z,96.40
2023-09-05T07:00:05.256Z,96.40
2023-09-05T07:02:32.111Z,96.40
2023-09-05T07:04:58.948Z,96.40
2023-09-05T07:07:26.896Z,96.40
2023-09-05T07:09:54.623Z,96.50
2023-09-05T07:12:21.483Z,96.50
2023-09-05T07:14:49.995Z,96.50
2023-09-05T07:17:19.889Z,96.50
2023-09-05T07:19:47.928Z,96.60
2023-09-05T07:22:14.811Z,96.50
2023-09-05T07:24:41.723Z,96.60
2023-09-05T07:27:25.069Z,96.50
2023-09-05T07:29:54.994Z,96.60
2023-09-05T07:32:21.822Z,96.60
2023-09-05T07:34:50.104Z,96.60
2023-09-05T07:37:17.277Z,96.50
2023-09-05T07:39:46.328Z,96.50
2023-09-05T07:42:13.090Z,96.50
2023-09-05T07:44:40.896Z,96.50
2023-09-05T07:47:07.855Z,96.40
2023-09-05T07:49:38.556Z,96.40
2023-09-05T07:52:35.274Z,96.30
2023-09-05T07:55:02.254Z,96.20
2023-09-05T07:57:29.381Z,96.10
2023-09-05T07:59:56.380Z,96.00
2023-09-05T08:02:23.237Z,96.00
2023-09-05T08:04:53.167Z,95.90
2023-09-05T08:07:19.927Z,95.90
2023-09-05T08:09:49.718Z,95.90
2023-09-05T08:12:16.534Z,95.80
2023-09-05T08:14:43.448Z,95.80
2023-09-05T08:17:13.015Z,95.80
2023-09-05T08:19:41.319Z,95.80
2023-09-05T08:22:08.318Z,95.70
2023-09-05T08:24:36.743Z,95.70
2023-09-05T08:27:06.238Z,95.60
2023-09-05T08:29:33.615Z,95.60
2023-09-05T08:32:00.831Z,95.50
2023-09-05T08:34:27.713Z,95.50
2023-09-05T08:36:59.305Z,95.50
2023-09-05T08:39:26.032Z,95.40
2023-09-05T08:41:53.730Z,95.50
2023-09-05T08:44:26.287Z,95.10
2023-09-05T08:46:53.283Z,94.90
2023-09-05T08:49:20.222Z,94.80
2023-09-05T08:51:49.428Z,94.60
2023-09-05T08:54:21.824Z,94.40
2023-09-05T08:56:48.800Z,94.20
2023-09-05T08:59:21.114Z,94.00
2023-09-05T09:01:55.699Z,93.90
2023-09-05T09:04:25.045Z,93.80
2023-09-05T09:06:59.104Z,93.70
2023-09-05T09:09:34.971Z,93.40
2023-09-05T09:12:01.897Z,93.20
2023-09-05T09:14:28.848Z,93.00
2023-09-05T09:16:55.688Z,92.90
2023-09-05T09:19:22.607Z,92.60
2023-09-05T09:21:49.357Z,92.40
2023-09-05T09:24:19.879Z,92.00
2023-09-05T09:26:56.892Z,91.80
2023-09-05T09:29:56.557Z,91.40
2023-09-05T09:32:26.209Z,90.70
2023-09-05T09:34:53.050Z,90.40
2023-09-05T09:37:25.857Z,89.80
2023-09-05T09:40:14.238Z,88.30
2023-09-05T09:42:41.209Z,86.90
2023-09-05T09:45:11.246Z,86.50
2023-09-05T09:47:39.568Z,85.20
2023-09-05T09:50:09.180Z,84.30
2023-09-05T09:52:36.161Z,83.10
2023-09-05T09:55:04.335Z,81.70
2023-09-05T09:57:43.283Z,80.60
2023-09-05T10:00:12.962Z,79.40
2023-09-05T10:02:39.994Z,78.30
2023-09-05T10:05:10.057Z,77.30
2023-09-05T10:07:36.888Z,76.30
2023-09-05T10:10:06.905Z,75.20
2023-09-05T10:12:37.134Z,74.60
2023-09-05T10:15:18.100Z,73.50
2023-09-05T10:17:51.092Z,72.40
2023-09-05T10:20:23.980Z,71.50
2023-09-05T10:22:54.599Z,70.60
2023-09-05T10:25:21.553Z,69.60
2023-09-05T10:27:49.967Z,69.10
2023-09-05T10:33:38.806Z,67.90
2023-09-05T10:36:07.779Z,66.90
2023-09-05T10:38:40.158Z,66.10
2023-09-05T10:41:09.586Z,65.30
2023-09-05T10:43:36.500Z,64.70
2023-09-05T10:46:20.064Z,64.00
2023-09-05T10:48:47.031Z,62.70
2023-09-05T10:51:14.960Z,62.60
2023-09-05T10:54:26.301Z,61.80
2023-09-05T10:57:30.461Z,60.90
2023-09-05T10:59:57.778Z,60.20
2023-09-05T11:02:50.517Z,59.90
2023-09-05T11:05:20.771Z,59.30
2023-09-05T11:07:51.658Z,58.30
2023-09-05T11:10:31.348Z,57.90
2023-09-05T11:13:10.108Z,57.10
2023-09-05T11:15:40.765Z,56.70
2023-09-05T11:18:15.434Z,56.60
2023-09-05T11:20:49.787Z,56.10
2023-09-05T11:23:30.680Z,55.40
2023-09-05T11:26:01.758Z,55.20
2023-09-05T11:28:36.042Z,54.30
2023-09-05T11:31:09.827Z,54.30
2023-09-05T11:34:33.674Z,52.70
2023-09-05T11:37:47.422Z,52.10
2023-09-05T11:40:23.279Z,53.10
2023-09-05T11:42:50.263Z,52.10
2023-09-05T11:45:29.988Z,51.50
2023-09-05T11:47:59.529Z,50.60
2023-09-05T11:50:26.643Z,50.10
2023-09-05T11:56:40.112Z,48.60
2023-09-05T11:59:07.070Z,48.40
2023-09-05T12:01:33.995Z,48.50
2023-09-05T12:04:20.560Z,48.20
2023-09-05T12:07:12.305Z,47.90
2023-09-05T12:09:39.371Z,47.80
2023-09-05T12:13:03.601Z,47.60
2023-09-05T12:15:31.627Z,47.10
2023-09-05T12:18:00.848Z,46.80
2023-09-05T12:20:28.025Z,46.50
2023-09-05T12:22:54.768Z,46.30
2023-09-05T12:25:42.670Z,45.90
2023-09-05T12:29:34.086Z,45.30
2023-09-05T12:32:00.924Z,45.00
2023-09-05T12:34:46.615Z,45.30
2023-09-05T12:37:19.018Z,44.50
2023-09-05T12:39:46.016Z,44.40
2023-09-05T12:42:15.851Z,44.20
2023-09-05T12:44:42.785Z,43.70
2023-09-05T12:47:24.594Z,43.60
2023-09-05T12:50:08.254Z,43.40
2023-09-05T12:52:38.046Z,43.40
2023-09-05T12:55:05.093Z,43.50
2023-09-05T12:57:31.993Z,43.60
2023-09-05T12:59:59.201Z,43.10
2023-09-05T13:02:26.051Z,42.70
2023-09-05T13:04:52.945Z,42.40
2023-09-05T13:07:20.012Z,42.20
2023-09-05T13:09:46.730Z,42.00
2023-09-05T13:12:13.762Z,41.70
2023-09-05T13:14:40.730Z,42.40
2023-09-05T13:17:07.465Z,41.60
2023-09-05T13:19:35.068Z,41.50
2023-09-05T13:22:01.873Z,41.30
2023-09-05T13:24:28.882Z,40.90
2023-09-05T13:26:57.142Z,40.90
2023-09-05T13:29:24.123Z,40.40
2023-09-05T13:31:51.036Z,40.60
2023-09-05T13:34:18.144Z,40.50
2023-09-05T13:36:50.519Z,40.30
2023-09-05T13:39:17.899Z,40.40
2023-09-05T13:41:44.820Z,40.50
2023-09-05T13:44:12.901Z,40.40
2023-09-05T13:46:39.862Z,40.50
2023-09-05T13:49:15.641Z,40.50
2023-09-05T13:51:44.694Z,40.40
2023-09-05T13:54:14.732Z,40.40
2023-09-05T13:56:48.136Z,40.20
2023-09-05T13:59:15.261Z,40.40
2023-09-05T14:01:42.513Z,40.30
2023-09-05T14:04:11.515Z,40.70
2023-09-05T14:06:43.998Z,39.70
2023-09-05T14:09:18.343Z,39.70
2023-09-05T14:11:54.068Z,39.70
2023-09-05T14:14:23.460Z,39.60
2023-09-05T14:16:55.029Z,39.60
2023-09-05T14:19:22.131Z,39.70
2023-09-05T14:21:49.224Z,39.40
2023-09-05T14:24:16.074Z,39.50
2023-09-05T14:26:42.901Z,39.30
2023-09-05T14:29:10.097Z,39.40
2023-09-05T14:31:40.129Z,39.30
2023-09-05T14:34:10.384Z,39.50
2023-09-05T14:36:42.627Z,39.50
2023-09-05T14:39:09.521Z,39.50
2023-09-05T14:41:36.763Z,39.70
2023-09-05T14:44:05.621Z,39.70
2023-09-05T14:46:35.647Z,39.80
2023-09-05T14:49:03.499Z,39.80
2023-09-05T14:51:30.865Z,40.00
2023-09-05T14:53:58.356Z,40.00
2023-09-05T14:56:25.270Z,40.20
2023-09-05T14:58:56.319Z,40.60
2023-09-05T15:01:26.304Z,40.90
2023-09-05T15:03:54.494Z,41.40
2023-09-05T15:06:21.495Z,41.50
2023-09-05T15:08:51.172Z,41.70
2023-09-05T15:11:19.869Z,42.00
2023-09-05T15:13:53.514Z,42.50
2023-09-05T15:16:25.765Z,42.90
2023-09-05T15:18:52.605Z,43.50
2023-09-05T15:21:19.464Z,44.30
2023-09-05T15:23:46.253Z,44.20
2023-09-05T15:26:13.135Z,44.50
2023-09-05T15:28:41.457Z,44.80
2023-09-05T15:31:09.903Z,45.10
2023-09-05T15:33:36.992Z,45.50
2023-09-05T15:36:03.902Z,45.90
2023-09-05T15:38:30.808Z,46.30
2023-09-05T15:40:57.669Z,46.70
2023-09-05T15:43:24.533Z,46.90
2023-09-05T15:45:51.999Z,47.20
2023-09-05T15:48:20.658Z,47.50
2023-09-05T15:50:48.881Z,47.80
2023-09-05T15:53:18.946Z,48.10
2023-09-05T15:55:45.872Z,48.50
2023-09-05T15:58:12.818Z,48.70
2023-09-05T16:00:39.872Z,48.80
2023-09-05T16:03:09.877Z,49.00
2023-09-05T16:05:36.853Z,49.30
2023-09-05T16:08:04.177Z,50.00
2023-09-05T16:10:30.965Z,49.40
2023-09-05T16:12:57.714Z,49.70
2023-09-05T16:15:24.566Z,49.80
2023-09-05T16:17:51.566Z,49.90
2023-09-05T16:20:18.670Z,49.90
2023-09-05T16:22:45.578Z,50.00
2023-09-05T16:25:12.512Z,50.20
2023-09-05T16:27:39.414Z,50.40
2023-09-05T16:30:09.775Z,50.40
2023-09-05T16:32:37.217Z,50.50
2023-09-05T16:35:04.681Z,51.10
2023-09-05T16:37:32.068Z,50.70
2023-09-05T16:40:00.017Z,50.90
2023-09-05T16:42:27.163Z,51.00
2023-09-05T16:44:54.118Z,51.00
2023-09-05T16:47:21.135Z,51.10
2023-09-05T16:49:48.041Z,51.30
2023-09-05T16:52:16.242Z,51.40
2023-09-05T16:54:44.102Z,51.60
2023-09-05T16:57:13.542Z,51.80
2023-09-05T16:59:41.868Z,51.80
2023-09-05T17:02:08.689Z,52.00
2023-09-05T17:07:24.310Z,52.10
2023-09-05T17:09:54.190Z,52.10
2023-09-05T17:12:21.062Z,52.30
2023-09-05T17:14:47.898Z,52.30
2023-09-05T17:17:14.827Z,52.90
2023-09-05T17:19:50.562Z,52.40
2023-09-05T17:22:20.558Z,52.50
2023-09-05T17:24:48.158Z,52.70
2023-09-05T17:27:15.189Z,52.90
2023-09-05T17:29:42.236Z,53.10
2023-09-05T17:32:10.108Z,53.20
2023-09-05T17:34:36.925Z,53.30
2023-09-05T17:37:32.130Z,53.20
2023-09-05T17:39:58.936Z,53.20
2023-09-05T17:42:26.209Z,53.30
2023-09-05T17:44:53.542Z,53.30
2023-09-05T17:47:20.366Z,53.50
2023-09-05T17:49:47.351Z,53.70
2023-09-05T17:52:14.279Z,53.80
2023-09-05T17:54:41.279Z,54.00
2023-09-05T17:57:08.031Z,54.30
2023-09-05T17:59:35.937Z,54.60
2023-09-05T18:04:49.945Z,55.10
2023-09-05T18:07:19.592Z,55.30
2023-09-05T18:20:56.313Z,56.60
2023-09-05T18:23:26.046Z,56.90
2023-09-05T18:26:16.454Z,57.20
2023-09-05T18:28:45.930Z,57.50
2023-09-05T18:31:18.812Z,58.00
2023-09-05T18:33:49.789Z,58.40
2023-09-05T18:36:26.411Z,58.50
2023-09-05T18:38:53.565Z,58.90
2023-09-05T18:41:20.506Z,59.20
2023-09-05T18:43:47.892Z,59.50
2023-09-05T18:46:15.871Z,59.80
2023-09-05T18:48:43.194Z,60.00
2023-09-05T18:51:14.969Z,60.30
2023-09-05T18:53:47.502Z,60.70
2023-09-05T18:56:14.419Z,60.90
2023-09-05T18:59:43.689Z,61.20
2023-09-05T20:36:46.989Z,69.50
2023-09-05T20:40:17.991Z,69.00
2023-09-05T20:42:55.273Z,70.00
2023-09-05T20:46:09.310Z,69.50
2023-09-05T20:49:24.964Z,70.40
2023-09-05T20:52:16.832Z,70.90
2023-09-05T20:55:09.635Z,71.60
2023-09-05T20:57:49.054Z,72.10
2023-09-05T21:00:51.630Z,72.40
2023-09-05T21:04:22.810Z,73.10
2023-09-05T21:07:45.854Z,73.30
2023-09-05T21:20:35.003Z,74.80
2023-09-05T21:23:02.299Z,74.90
2023-09-05T21:25:31.631Z,75.40
2023-09-05T21:28:00.607Z,75.80
2023-09-05T21:30:34.503Z,76.20
2023-09-05T21:33:03.188Z,76.60
2023-09-05T21:35:30.052Z,76.40
2023-09-05T21:38:03.710Z,76.60
2023-09-05T21:40:33.629Z,76.90
2023-09-05T21:43:00.509Z,77.10
2023-09-05T21:45:31.913Z,77.40
2023-09-05T21:53:20.391Z,78.20
2023-09-05T21:55:47.173Z,78.40
2023-09-05T21:58:13.884Z,78.80
2023-09-05T22:00:49.868Z,79.10
2023-09-05T22:03:22.748Z,79.40
2023-09-05T22:05:56.181Z,79.60
2023-09-05T22:08:25.880Z,79.90
2023-09-05T22:10:55.212Z,80.10
2023-09-05T22:13:27.374Z,80.50
2023-09-05T22:16:12.144Z,81.00
2023-09-05T22:18:42.799Z,81.10
2023-09-05T22:21:12.600Z,81.50
2023-09-05T22:23:42.438Z,81.80
2023-09-05T22:26:12.397Z,82.20
2023-09-05T22:28:41.322Z,82.50
2023-09-05T22:31:10.953Z,82.80
2023-09-05T22:33:40.625Z,83.10
2023-09-05T22:36:07.704Z,83.40
2023-09-05T22:38:34.730Z,83.50
2023-09-05T22:41:04.060Z,83.70
2023-09-05T22:43:33.151Z,84.00
2023-09-05T22:46:00.181Z,84.30
2023-09-05T22:48:27.267Z,84.70
2023-09-05T22:50:54.340Z,84.40
2023-09-05T22:53:21.210Z,85.30
2023-09-05T22:55:48.701Z,85.40
2023-09-05T22:58:16.461Z,85.50
2023-09-05T23:00:52.372Z,85.70
2023-09-05T23:03:21.112Z,85.90
2023-09-05T23:05:48.188Z,86.60
2023-09-05T23:08:14.968Z,86.30
2023-09-05T23:10:44.402Z,86.50
2023-09-05T23:13:11.208Z,86.70
2023-09-05T23:15:39.298Z,86.90
2023-09-05T23:18:06.462Z,87.10
2023-09-05T23:20:33.251Z,87.20
2023-09-05T23:23:00.128Z,87.40
2023-09-05T23:25:28.971Z,87.60
2023-09-05T23:27:55.906Z,87.80
2023-09-05T23:30:22.788Z,87.90
2023-09-05T23:32:50.993Z,88.10
2023-09-05T23:35:19.507Z,88.30
2023-09-05T23:37:46.322Z,88.50
2023-09-05T23:40:20.283Z,88.60
2023-09-05T23:42:47.199Z,88.80
2023-09-05T23:45:16.804Z,88.90
2023-09-05T23:47:48.426Z,89.10
2023-09-05T23:50:16.328Z,89.20
2023-09-05T23:52:43.164Z,89.30
2023-09-05T23:55:10.389Z,89.50
2023-09-05T23:57:37.242Z,89.60
